createdAt,value
2017-03-25T00:00:06.586Z,3.7
2017-03-25T00:00:47.032Z,3.63
2017-03-25T00:01:27.476Z,3.66
2017-03-25T00:02:07.887Z,3.64
2017-03-25T00:02:48.386Z,3.59
2017-03-25T00:03:28.790Z,3.63
2017-03-25T00:04:09.207Z,3.66
2017-03-25T00:04:49.648Z,3.63
2017-03-25T00:05:30.070Z,3.63
2017-03-25T00:06:10.478Z,3.67
2017-03-25T00:06:50.905Z,3.66
2017-03-25T00:07:31.349Z,3.63
2017-03-25T00:08:11.758Z,3.68
2017-03-25T00:08:52.153Z,3.63
2017-03-25T00:09:32.519Z,3.61
2017-03-25T00:10:12.905Z,3.58
2017-03-25T00:10:53.362Z,3.59
2017-03-25T00:11:33.814Z,3.53
2017-03-25T00:12:14.246Z,3.52
2017-03-25T00:12:54.615Z,3.53
2017-03-25T00:13:35.048Z,3.36
2017-03-25T00:14:15.539Z,3.49
2017-03-25T00:14:55.971Z,3.4
2017-03-25T00:15:36.316Z,3.4
2017-03-25T00:16:16.800Z,3.24
2017-03-25T00:16:57.200Z,3.29
2017-03-25T00:17:37.586Z,3.26
2017-03-25T00:18:18.013Z,3.26
2017-03-25T00:18:58.427Z,3.16
2017-03-25T00:19:38.863Z,3.13
2017-03-25T00:20:19.285Z,3.22
2017-03-25T00:20:59.715Z,3.21
2017-03-25T00:21:40.074Z,3.24
2017-03-25T00:22:20.493Z,3.27
2017-03-25T00:23:00.940Z,3.24
2017-03-25T00:23:41.334Z,3.34
2017-03-25T00:24:21.725Z,3.26
2017-03-25T00:25:02.234Z,3.26
2017-03-25T00:25:42.635Z,3.13
2017-03-25T00:26:23.043Z,3.09
2017-03-25T00:27:03.469Z,3.11
2017-03-25T00:27:43.866Z,3.15
2017-03-25T00:28:24.361Z,3.09
2017-03-25T00:29:04.738Z,3.06
2017-03-25T00:29:45.240Z,3.06
2017-03-25T00:30:25.632Z,3.03
2017-03-25T00:31:06.065Z,3.06
2017-03-25T00:31:46.446Z,3.19
2017-03-25T00:32:26.911Z,3.09
2017-03-25T00:33:07.272Z,3.11
2017-03-25T00:33:47.663Z,3.05
2017-03-25T00:34:28.237Z,3.06
2017-03-25T00:35:08.685Z,3.09
2017-03-25T00:35:49.019Z,3.05
2017-03-25T00:36:29.452Z,3.11
2017-03-25T00:37:09.908Z,3.06
2017-03-25T00:37:50.338Z,3.09
2017-03-25T00:38:30.782Z,3.06
2017-03-25T00:39:11.215Z,3.05
2017-03-25T00:39:51.692Z,3.06
2017-03-25T00:40:32.064Z,3.08
2017-03-25T00:41:14.367Z,3.08
2017-03-25T00:41:54.779Z,3.05
2017-03-25T00:42:35.232Z,3.03
2017-03-25T00:43:15.584Z,3.01
2017-03-25T00:43:56.023Z,3.01
2017-03-25T00:44:36.474Z,2.95
2017-03-25T00:45:16.916Z,2.95
2017-03-25T00:45:57.286Z,2.87
2017-03-25T00:46:37.725Z,2.9
2017-03-25T00:47:18.146Z,2.88
2017-03-25T00:47:58.542Z,2.87
2017-03-25T00:48:38.978Z,2.95
2017-03-25T00:49:19.420Z,2.87
2017-03-25T00:49:59.862Z,2.91
2017-03-25T00:50:40.299Z,2.91
2017-03-25T00:51:21.607Z,2.91
2017-03-25T00:52:02.058Z,2.91
2017-03-25T00:52:42.574Z,2.8
2017-03-25T00:53:23.004Z,2.82
2017-03-25T00:54:04.321Z,2.9
2017-03-25T00:54:44.763Z,2.93
2017-03-25T00:55:26.838Z,2.88
2017-03-25T00:56:07.193Z,2.91
2017-03-25T00:56:49.266Z,2.77
2017-03-25T00:57:29.706Z,2.77
2017-03-25T00:58:10.168Z,2.87
2017-03-25T00:58:50.615Z,2.93
2017-03-25T00:59:31.014Z,2.93
2017-03-25T01:00:11.418Z,2.82
2017-03-25T01:00:51.842Z,2.91
2017-03-25T01:01:32.309Z,2.94
2017-03-25T01:02:12.728Z,2.9
2017-03-25T01:02:53.191Z,2.91
2017-03-25T01:03:33.639Z,2.83
2017-03-25T01:04:14.173Z,2.88
2017-03-25T01:04:54.569Z,2.82
2017-03-25T01:05:35.012Z,2.83
2017-03-25T01:06:15.390Z,2.85
2017-03-25T01:06:55.786Z,2.83
2017-03-25T01:07:36.210Z,2.8
2017-03-25T01:08:16.647Z,2.82
2017-03-25T01:08:57.034Z,2.73
2017-03-25T01:09:37.484Z,2.79
2017-03-25T01:11:17.430Z,2.72
2017-03-25T01:12:06.020Z,2.77
2017-03-25T01:12:54.616Z,2.7
2017-03-25T01:13:43.194Z,2.72
2017-03-25T01:14:31.843Z,2.64
2017-03-25T01:15:20.130Z,2.68
2017-03-25T01:16:06.783Z,2.58
2017-03-25T01:16:55.674Z,2.57
2017-03-25T01:17:43.822Z,2.55
2017-03-25T01:18:32.335Z,2.55
2017-03-25T01:19:21.578Z,2.69
2017-03-25T01:20:09.804Z,2.61
2017-03-25T01:20:53.638Z,2.65
2017-03-25T01:21:34.969Z,2.68
2017-03-25T01:22:15.374Z,2.64
2017-03-25T01:22:56.588Z,2.72
2017-03-25T01:23:38.921Z,2.64
2017-03-25T01:24:19.371Z,2.64
2017-03-25T01:25:00.174Z,2.57
2017-03-25T01:25:40.561Z,2.52
2017-03-25T01:26:20.981Z,2.57
2017-03-25T01:27:01.447Z,2.55
2017-03-25T01:27:41.884Z,2.52
2017-03-25T01:28:22.256Z,2.58
2017-03-25T01:29:02.687Z,2.47
2017-03-25T01:29:43.155Z,2.57
2017-03-25T01:30:23.566Z,2.52
2017-03-25T01:31:04.783Z,2.58
2017-03-25T01:31:45.163Z,2.46
2017-03-25T01:32:26.434Z,2.54
2017-03-25T01:33:06.814Z,2.47
2017-03-25T01:33:47.232Z,2.46
2017-03-25T01:34:27.614Z,2.51
2017-03-25T01:35:08.066Z,2.51
2017-03-25T01:35:48.585Z,2.43
2017-03-25T01:36:29.292Z,2.39
2017-03-25T01:37:09.725Z,2.44
2017-03-25T01:37:50.138Z,2.4
2017-03-25T01:38:30.516Z,2.41
2017-03-25T01:39:10.937Z,2.44
2017-03-25T01:39:52.302Z,2.4
2017-03-25T01:40:32.678Z,2.43
2017-03-25T01:41:13.722Z,2.44
2017-03-25T01:41:54.153Z,2.37
2017-03-25T01:42:34.523Z,2.44
2017-03-25T01:43:15.334Z,2.5
2017-03-25T01:43:55.531Z,2.36
2017-03-25T01:44:35.936Z,2.43
2017-03-25T01:45:16.346Z,2.41
2017-03-25T01:45:56.749Z,2.39
2017-03-25T01:46:39.948Z,2.54
2017-03-25T01:47:20.330Z,2.46
2017-03-25T01:48:00.735Z,2.54
2017-03-25T01:48:41.119Z,2.51
2017-03-25T01:49:21.524Z,2.39
2017-03-25T01:50:01.888Z,2.4
2017-03-25T01:50:42.661Z,2.39
2017-03-25T01:51:23.125Z,2.43
2017-03-25T01:52:03.552Z,2.4
2017-03-25T01:52:43.991Z,2.4
2017-03-25T01:53:24.380Z,2.39
2017-03-25T01:54:07.798Z,2.41
2017-03-25T01:54:48.270Z,2.36
2017-03-25T01:55:28.646Z,2.36
2017-03-25T01:56:09.097Z,2.33
2017-03-25T01:56:49.535Z,2.37
2017-03-25T01:57:29.855Z,2.28
2017-03-25T01:58:10.260Z,2.36
2017-03-25T01:58:50.674Z,2.32
2017-03-25T01:59:31.076Z,2.23
2017-03-25T02:00:11.517Z,2.3
2017-03-25T02:00:52.485Z,2.34
2017-03-25T02:01:33.730Z,2.33
2017-03-25T02:02:14.173Z,2.33
2017-03-25T02:02:55.062Z,2.33
2017-03-25T02:03:36.392Z,2.33
2017-03-25T02:04:16.962Z,2.26
2017-03-25T02:04:57.466Z,2.3
2017-03-25T02:05:37.869Z,2.25
2017-03-25T02:06:19.326Z,2.26
2017-03-25T02:07:00.966Z,2.14
2017-03-25T02:07:42.215Z,2.25
2017-03-25T02:08:22.693Z,2.25
2017-03-25T02:09:03.040Z,2.21
2017-03-25T02:09:43.479Z,2.16
2017-03-25T02:10:23.867Z,2.1
2017-03-25T02:11:04.248Z,2.14
2017-03-25T02:11:44.754Z,2.14
2017-03-25T02:12:25.186Z,2.15
2017-03-25T02:13:05.614Z,2.16
2017-03-25T02:13:45.996Z,2.18
2017-03-25T02:14:26.393Z,2.12
2017-03-25T02:15:06.884Z,2.12
2017-03-25T02:15:47.255Z,2.12
2017-03-25T02:16:27.705Z,2.12
2017-03-25T02:17:08.041Z,2.07
2017-03-25T02:17:48.493Z,2.14
2017-03-25T02:18:29.191Z,2.14
2017-03-25T02:19:09.543Z,2.15
2017-03-25T02:19:49.992Z,2.21
2017-03-25T02:20:30.386Z,2.16
2017-03-25T02:21:10.813Z,2.22
2017-03-25T02:21:51.218Z,2.23
2017-03-25T02:22:31.596Z,2.22
2017-03-25T02:23:12.043Z,2.18
2017-03-25T02:23:52.405Z,2.18
2017-03-25T02:24:32.969Z,2.19
2017-03-25T02:25:13.385Z,2.22
2017-03-25T02:25:53.772Z,2.21
2017-03-25T02:26:34.204Z,2.23
2017-03-25T02:27:14.702Z,2.23
2017-03-25T02:27:55.034Z,2.28
2017-03-25T02:28:35.395Z,2.25
2017-03-25T02:29:15.788Z,2.21
2017-03-25T02:29:56.206Z,2.23
2017-03-25T02:30:36.589Z,2.28
2017-03-25T02:31:17.024Z,2.26
2017-03-25T02:31:57.461Z,2.22
2017-03-25T02:32:37.921Z,2.16
2017-03-25T02:33:18.263Z,2.22
2017-03-25T02:33:59.808Z,2.19
2017-03-25T02:34:40.200Z,2.22
2017-03-25T02:35:20.640Z,2.16
2017-03-25T02:36:01.736Z,2.21
2017-03-25T02:36:42.174Z,2.23
2017-03-25T02:37:22.615Z,2.22
2017-03-25T02:38:03.885Z,2.25
2017-03-25T02:38:45.393Z,2.26
2017-03-25T02:39:25.811Z,2.19
2017-03-25T02:40:06.166Z,2.18
2017-03-25T02:40:46.541Z,2.19
2017-03-25T02:41:27.782Z,2.26
2017-03-25T02:42:08.229Z,2.23
2017-03-25T02:42:48.633Z,2.22
2017-03-25T02:43:29.046Z,2.22
2017-03-25T02:44:10.101Z,2.22
2017-03-25T02:44:50.561Z,2.14
2017-03-25T02:45:31.046Z,2.15
2017-03-25T02:46:11.418Z,2.15
2017-03-25T02:46:51.830Z,2.15
2017-03-25T02:47:33.077Z,2.05
2017-03-25T02:48:14.381Z,2.15
2017-03-25T02:48:54.805Z,2.07
2017-03-25T02:49:37.741Z,2.05
2017-03-25T02:50:18.833Z,2.04
2017-03-25T02:50:59.254Z,2.18
2017-03-25T02:51:39.708Z,2.05
2017-03-25T02:52:20.101Z,2.08
2017-03-25T02:53:00.567Z,2.03
2017-03-25T02:53:40.926Z,2
2017-03-25T02:54:21.382Z,1.97
2017-03-25T02:55:01.821Z,2.01
2017-03-25T02:55:42.255Z,1.93
2017-03-25T02:56:23.444Z,1.88
2017-03-25T02:57:03.887Z,1.82
2017-03-25T02:57:44.942Z,1.81
2017-03-25T02:58:25.316Z,1.79
2017-03-25T02:59:05.758Z,1.79
2017-03-25T02:59:46.350Z,1.79
2017-03-25T03:00:27.722Z,1.78
2017-03-25T03:01:08.119Z,1.78
2017-03-25T03:01:48.478Z,1.75
2017-03-25T03:02:28.959Z,1.78
2017-03-25T03:03:11.664Z,1.81
2017-03-25T03:03:52.777Z,1.74
2017-03-25T03:04:34.558Z,1.76
2017-03-25T03:05:15.009Z,1.78
2017-03-25T03:05:55.400Z,1.81
2017-03-25T03:06:36.196Z,1.7
2017-03-25T03:07:16.659Z,1.78
2017-03-25T03:07:57.046Z,1.71
2017-03-25T03:08:37.454Z,1.79
2017-03-25T03:09:17.889Z,1.75
2017-03-25T03:09:58.255Z,1.71
2017-03-25T03:10:38.650Z,1.84
2017-03-25T03:11:19.064Z,1.84
2017-03-25T03:12:00.312Z,1.74
2017-03-25T03:12:41.670Z,1.84
2017-03-25T03:13:22.065Z,1.86
2017-03-25T03:14:03.540Z,1.81
2017-03-25T03:14:44.725Z,1.85
2017-03-25T03:15:25.523Z,1.78
2017-03-25T03:16:05.975Z,1.84
2017-03-25T03:16:47.242Z,1.81
2017-03-25T03:17:27.636Z,1.79
2017-03-25T03:18:08.076Z,1.82
2017-03-25T03:18:49.236Z,1.74
2017-03-25T03:19:29.665Z,1.7
2017-03-25T03:20:10.049Z,1.82
2017-03-25T03:20:50.462Z,1.75
2017-03-25T03:21:30.841Z,1.7
2017-03-25T03:22:11.380Z,1.71
2017-03-25T03:22:51.717Z,1.78
2017-03-25T03:23:33.129Z,1.76
2017-03-25T03:24:14.405Z,1.75
2017-03-25T03:24:54.799Z,1.67
2017-03-25T03:25:35.187Z,1.7
2017-03-25T03:26:16.349Z,1.75
2017-03-25T03:26:56.795Z,1.74
2017-03-25T03:27:37.207Z,1.75
2017-03-25T03:28:17.633Z,1.74
2017-03-25T03:28:59.198Z,1.67
2017-03-25T03:29:39.545Z,1.67
2017-03-25T03:30:19.936Z,1.68
2017-03-25T03:31:00.402Z,1.66
2017-03-25T03:31:41.639Z,1.74
2017-03-25T03:32:22.032Z,1.66
2017-03-25T03:33:02.439Z,1.63
2017-03-25T03:33:42.847Z,1.66
2017-03-25T03:34:23.304Z,1.7
2017-03-25T03:35:03.641Z,1.68
2017-03-25T03:35:44.051Z,1.64
2017-03-25T03:36:24.401Z,1.66
2017-03-25T03:37:04.828Z,1.67
2017-03-25T03:37:45.273Z,1.61
2017-03-25T03:38:26.557Z,1.67
2017-03-25T03:39:06.988Z,1.64
2017-03-25T03:39:47.356Z,1.63
2017-03-25T03:40:28.098Z,1.64
2017-03-25T03:41:08.538Z,1.53
2017-03-25T03:41:51.713Z,1.71
2017-03-25T03:42:32.824Z,1.61
2017-03-25T03:43:13.214Z,1.63
2017-03-25T03:43:53.639Z,1.66
2017-03-25T03:44:34.056Z,1.68
2017-03-25T03:45:14.500Z,1.64
2017-03-25T03:45:54.863Z,1.67
2017-03-25T03:46:35.264Z,1.61
2017-03-25T03:47:15.662Z,1.68
2017-03-25T03:47:56.090Z,1.61
2017-03-25T03:48:36.584Z,1.58
2017-03-25T03:49:16.948Z,1.64
2017-03-25T03:49:57.344Z,1.68
2017-03-25T03:50:37.780Z,1.64
2017-03-25T03:51:18.161Z,1.7
2017-03-25T03:51:58.565Z,1.68
2017-03-25T03:52:38.958Z,1.66
2017-03-25T03:53:19.407Z,1.67
2017-03-25T03:54:00.435Z,1.6
2017-03-25T03:54:40.816Z,1.6
2017-03-25T03:55:22.173Z,1.58
2017-03-25T03:56:02.521Z,1.64
2017-03-25T03:56:42.969Z,1.58
2017-03-25T03:57:23.955Z,1.67
2017-03-25T03:58:04.382Z,1.58
2017-03-25T03:58:44.742Z,1.66
2017-03-25T03:59:25.172Z,1.61
2017-03-25T04:00:06.510Z,1.56
2017-03-25T04:00:46.948Z,1.64
2017-03-25T04:01:27.387Z,1.64
2017-03-25T04:02:08.680Z,1.64
2017-03-25T04:02:49.148Z,1.58
2017-03-25T04:03:30.323Z,1.58
2017-03-25T04:04:10.720Z,1.67
2017-03-25T04:04:51.116Z,1.61
2017-03-25T04:05:33.374Z,1.6
2017-03-25T04:06:12.887Z,1.7
2017-03-25T04:06:54.653Z,1.66
2017-03-25T04:07:35.979Z,1.63
2017-03-25T04:08:16.393Z,1.57
2017-03-25T04:08:56.758Z,1.63
2017-03-25T04:09:38.191Z,1.58
2017-03-25T04:10:18.557Z,1.58
2017-03-25T04:10:58.981Z,1.67
2017-03-25T04:11:39.393Z,1.58
2017-03-25T04:12:19.793Z,1.6
2017-03-25T04:13:00.889Z,1.56
2017-03-25T04:13:41.300Z,1.57
2017-03-25T04:14:21.731Z,1.5
2017-03-25T04:15:02.144Z,1.61
2017-03-25T04:15:42.561Z,1.52
2017-03-25T04:16:22.947Z,1.57
2017-03-25T04:17:04.213Z,1.52
2017-03-25T04:17:45.477Z,1.53
2017-03-25T04:18:25.884Z,1.5
2017-03-25T04:19:06.313Z,1.57
2017-03-25T04:19:46.754Z,1.52
2017-03-25T04:20:27.201Z,1.52
2017-03-25T04:21:08.485Z,1.49
2017-03-25T04:21:52.311Z,1.52
2017-03-25T04:22:33.221Z,1.52
2017-03-25T04:23:13.644Z,1.52
2017-03-25T04:23:54.180Z,1.52
2017-03-25T04:24:36.207Z,1.46
2017-03-25T04:25:16.671Z,1.49
2017-03-25T04:25:57.970Z,1.49
2017-03-25T04:26:39.809Z,1.52
2017-03-25T04:27:20.203Z,1.52
2017-03-25T04:28:01.247Z,1.5
2017-03-25T04:28:41.659Z,1.49
2017-03-25T04:29:22.205Z,1.5
2017-03-25T04:30:02.582Z,1.43
2017-03-25T04:30:42.982Z,1.58
2017-03-25T04:31:23.385Z,1.61
2017-03-25T04:32:04.544Z,1.49
2017-03-25T04:32:45.462Z,1.6
2017-03-25T04:33:26.773Z,1.58
2017-03-25T04:34:07.134Z,1.6
2017-03-25T04:34:47.577Z,1.52
2017-03-25T04:35:27.936Z,1.6
2017-03-25T04:36:08.499Z,1.57
2017-03-25T04:36:50.804Z,1.56
2017-03-25T04:37:40.835Z,1.56
2017-03-25T04:38:22.984Z,1.66
2017-03-25T04:39:02.517Z,1.53
2017-03-25T04:39:44.139Z,1.57
2017-03-25T04:40:24.528Z,1.66
2017-03-25T04:41:05.603Z,1.58
2017-03-25T04:41:47.938Z,1.58
2017-03-25T04:42:28.845Z,1.63
2017-03-25T04:43:09.235Z,1.48
2017-03-25T04:43:49.600Z,1.48
2017-03-25T04:44:30.887Z,1.46
2017-03-25T04:45:12.266Z,1.46
2017-03-25T04:45:53.137Z,1.5
2017-03-25T04:46:34.298Z,1.5
2017-03-25T04:47:14.780Z,1.48
2017-03-25T04:47:55.150Z,1.49
2017-03-25T04:48:35.564Z,1.49
2017-03-25T04:49:15.928Z,1.48
2017-03-25T04:49:56.341Z,1.52
2017-03-25T04:50:36.755Z,1.52
2017-03-25T04:51:17.235Z,1.57
2017-03-25T04:51:57.736Z,1.56
2017-03-25T04:52:38.372Z,1.53
2017-03-25T04:53:18.730Z,1.45
2017-03-25T04:53:59.191Z,1.57
2017-03-25T04:54:39.570Z,1.52
2017-03-25T04:55:19.921Z,1.46
2017-03-25T04:56:01.231Z,1.45
2017-03-25T04:56:41.650Z,1.45
2017-03-25T04:57:22.134Z,1.4
2017-03-25T04:58:02.498Z,1.38
2017-03-25T04:58:42.977Z,1.42
2017-03-25T04:59:23.404Z,1.36
2017-03-25T05:00:03.786Z,1.46
2017-03-25T05:00:44.214Z,1.36
2017-03-25T05:01:24.587Z,1.38
2017-03-25T05:02:05.074Z,1.39
2017-03-25T05:02:45.442Z,1.42
2017-03-25T05:03:25.846Z,1.34
2017-03-25T05:04:06.278Z,1.39
2017-03-25T05:04:46.686Z,1.3
2017-03-25T05:05:27.098Z,1.39
2017-03-25T05:06:07.487Z,1.39
2017-03-25T05:06:47.909Z,1.42
2017-03-25T05:07:28.283Z,1.31
2017-03-25T05:08:08.768Z,1.38
2017-03-25T05:08:50.005Z,1.39
2017-03-25T05:09:30.416Z,1.36
2017-03-25T05:10:10.778Z,1.36
2017-03-25T05:10:51.218Z,1.31
2017-03-25T05:11:31.638Z,1.27
2017-03-25T05:12:12.015Z,1.28
2017-03-25T05:12:52.441Z,1.36
2017-03-25T05:13:32.861Z,1.3
2017-03-25T05:14:13.195Z,1.28
2017-03-25T05:14:53.623Z,1.27
2017-03-25T05:15:34.063Z,1.31
2017-03-25T05:16:14.477Z,1.31
2017-03-25T05:16:54.867Z,1.34
2017-03-25T05:17:35.292Z,1.31
2017-03-25T05:18:15.687Z,1.34
2017-03-25T05:18:56.097Z,1.32
2017-03-25T05:19:36.463Z,1.31
2017-03-25T05:20:16.927Z,1.38
2017-03-25T05:20:57.318Z,1.34
2017-03-25T05:21:37.718Z,1.34
2017-03-25T05:22:18.110Z,1.3
2017-03-25T05:22:58.548Z,1.32
2017-03-25T05:23:38.905Z,1.36
2017-03-25T05:24:19.286Z,1.32
2017-03-25T05:24:59.706Z,1.3
2017-03-25T05:25:40.154Z,1.28
2017-03-25T05:26:20.523Z,1.27
2017-03-25T05:27:00.939Z,1.25
2017-03-25T05:27:41.327Z,1.21
2017-03-25T05:28:21.770Z,1.24
2017-03-25T05:29:02.127Z,1.13
2017-03-25T05:29:42.538Z,1.22
2017-03-25T05:30:22.948Z,1.16
2017-03-25T05:31:03.360Z,1.1
2017-03-25T05:31:43.743Z,1.2
2017-03-25T05:32:24.164Z,1.24
2017-03-25T05:33:04.565Z,1.27
2017-03-25T05:33:44.934Z,1.24
2017-03-25T05:34:25.434Z,1.28
2017-03-25T05:35:05.777Z,1.32
2017-03-25T05:35:46.189Z,1.25
2017-03-25T05:36:26.592Z,1.34
2017-03-25T05:37:07.013Z,1.32
2017-03-25T05:37:47.423Z,1.36
2017-03-25T05:38:27.850Z,1.38
2017-03-25T05:39:08.516Z,1.3
2017-03-25T05:39:48.939Z,1.36
2017-03-25T05:40:29.300Z,1.39
2017-03-25T05:41:10.640Z,1.42
2017-03-25T05:41:51.058Z,1.4
2017-03-25T05:42:31.468Z,1.45
2017-03-25T05:43:11.837Z,1.45
2017-03-25T05:43:52.318Z,1.56
2017-03-25T05:44:32.712Z,1.5
2017-03-25T05:45:13.116Z,1.56
2017-03-25T05:45:53.485Z,1.48
2017-03-25T05:46:33.850Z,1.5
2017-03-25T05:47:14.254Z,1.46
2017-03-25T05:47:54.722Z,1.49
2017-03-25T05:48:35.087Z,1.56
2017-03-25T05:49:15.538Z,1.57
2017-03-25T05:49:55.922Z,1.57
2017-03-25T05:50:36.344Z,1.52
2017-03-25T05:51:16.739Z,1.52
2017-03-25T05:51:57.144Z,1.61
2017-03-25T05:52:37.576Z,1.64
2017-03-25T05:53:17.980Z,1.66
2017-03-25T05:53:58.350Z,1.67
2017-03-25T05:54:38.777Z,1.58
2017-03-25T05:55:19.160Z,1.74
2017-03-25T05:55:59.559Z,1.68
2017-03-25T05:56:39.960Z,1.7
2017-03-25T05:57:20.409Z,1.74
2017-03-25T05:58:00.786Z,1.75
2017-03-25T05:58:41.202Z,1.76
2017-03-25T05:59:21.596Z,1.81
2017-03-25T06:00:02.038Z,1.75
2017-03-25T06:00:42.444Z,1.76
2017-03-25T06:01:22.870Z,1.81
2017-03-25T06:02:03.245Z,1.88
2017-03-25T06:02:43.668Z,1.79
2017-03-25T06:03:24.051Z,1.86
2017-03-25T06:04:04.455Z,1.86
2017-03-25T06:04:44.888Z,1.98
2017-03-25T06:05:25.286Z,1.89
2017-03-25T06:06:05.697Z,1.88
2017-03-25T06:06:46.166Z,2.01
2017-03-25T06:07:26.573Z,2.01
2017-03-25T06:08:06.931Z,2.08
2017-03-25T06:08:47.342Z,2.05
2017-03-25T06:09:27.750Z,2.12
2017-03-25T06:10:09.621Z,2.25
2017-03-25T06:10:56.776Z,2.3
2017-03-25T06:11:37.119Z,2.26
2017-03-25T06:12:17.526Z,2.37
2017-03-25T06:12:57.940Z,2.44
2017-03-25T06:13:38.365Z,2.5
2017-03-25T06:14:18.828Z,2.52
2017-03-25T06:14:59.236Z,2.47
2017-03-25T06:15:39.614Z,2.52
2017-03-25T06:16:20.028Z,2.76
2017-03-25T06:17:00.429Z,2.83
2017-03-25T06:17:40.830Z,2.87
2017-03-25T06:18:21.219Z,2.93
2017-03-25T06:19:01.622Z,3.03
2017-03-25T06:19:42.024Z,2.97
2017-03-25T06:20:22.460Z,3.05
2017-03-25T06:21:02.875Z,3.11
2017-03-25T06:21:43.246Z,3.29
2017-03-25T06:22:23.645Z,3.3
2017-03-25T06:23:04.051Z,3.4
2017-03-25T06:23:44.503Z,3.48
2017-03-25T06:24:24.918Z,3.46
2017-03-25T06:25:05.284Z,3.53
2017-03-25T06:25:45.646Z,3.63
2017-03-25T06:26:26.073Z,3.67
2017-03-25T06:27:06.502Z,3.77
2017-03-25T06:27:46.882Z,3.77
2017-03-25T06:28:27.280Z,3.86
2017-03-25T06:29:07.744Z,3.84
2017-03-25T06:29:48.150Z,3.91
2017-03-25T06:30:29.410Z,4
2017-03-25T06:31:13.234Z,4.14
2017-03-25T06:31:55.189Z,4.1
2017-03-25T06:32:41.286Z,4.21
2017-03-25T06:33:22.497Z,4.25
2017-03-25T06:34:03.730Z,4.36
2017-03-25T06:34:44.771Z,4.43
2017-03-25T06:35:26.009Z,4.5
2017-03-25T06:36:07.874Z,4.58
2017-03-25T06:36:48.784Z,4.66
2017-03-25T06:37:29.757Z,4.7
2017-03-25T06:38:10.195Z,4.76
2017-03-25T06:38:55.249Z,4.84
2017-03-25T06:39:36.510Z,4.92
2017-03-25T06:40:18.889Z,5.04
2017-03-25T06:40:59.289Z,5.05
2017-03-25T06:41:40.422Z,5.12
2017-03-25T06:42:21.318Z,5.18
2017-03-25T06:43:04.325Z,5.25
2017-03-25T06:43:44.800Z,5.44
2017-03-25T06:44:25.774Z,5.4
2017-03-25T06:45:06.137Z,5.4
2017-03-25T06:45:46.640Z,5.52
2017-03-25T06:46:27.050Z,5.62
2017-03-25T06:47:08.026Z,5.76
2017-03-25T06:47:49.141Z,5.83
2017-03-25T06:48:31.327Z,5.84
2017-03-25T06:49:11.772Z,5.98
2017-03-25T06:49:52.154Z,5.97
2017-03-25T06:50:39.224Z,6.06
2017-03-25T06:51:19.607Z,6.17
2017-03-25T06:52:00.161Z,6.16
2017-03-25T06:52:41.388Z,6.25
2017-03-25T06:53:21.869Z,6.34
2017-03-25T06:54:03.697Z,6.43
2017-03-25T06:54:44.768Z,6.52
2017-03-25T06:55:25.835Z,6.49
2017-03-25T06:56:08.942Z,6.67
2017-03-25T06:56:51.235Z,6.68
2017-03-25T06:57:31.718Z,6.77
2017-03-25T06:58:12.073Z,6.83
2017-03-25T06:58:52.588Z,6.82
2017-03-25T06:59:33.684Z,6.9
2017-03-25T07:00:14.111Z,6.97
2017-03-25T07:00:57.196Z,7.05
2017-03-25T07:01:38.400Z,7.03
2017-03-25T07:02:18.855Z,7
2017-03-25T07:03:00.836Z,7.04
2017-03-25T07:03:41.304Z,7
2017-03-25T07:04:23.241Z,7.18
2017-03-25T07:05:06.270Z,7.23
2017-03-25T07:05:46.648Z,7.25
2017-03-25T07:06:28.673Z,7.31
2017-03-25T07:07:13.619Z,7.33
2017-03-25T07:07:56.735Z,7.39
2017-03-25T07:08:37.791Z,7.41
2017-03-25T07:09:20.757Z,7.48
2017-03-25T07:10:02.928Z,7.56
2017-03-25T07:10:50.651Z,7.56
2017-03-25T07:13:05.296Z,7.72
2017-03-25T07:13:46.951Z,7.83
2017-03-25T07:14:27.880Z,7.93
2017-03-25T07:15:09.079Z,7.9
2017-03-25T07:15:53.225Z,8.08
2017-03-25T07:16:36.274Z,8.08
2017-03-25T07:17:18.244Z,8.18
2017-03-25T07:18:02.332Z,8.14
2017-03-25T07:18:43.688Z,8.21
2017-03-25T07:19:25.638Z,8.31
2017-03-25T07:20:06.121Z,8.38
2017-03-25T07:20:49.078Z,8.42
2017-03-25T07:21:31.076Z,8.45
2017-03-25T07:22:11.514Z,8.56
2017-03-25T07:22:53.302Z,8.56
2017-03-25T07:23:33.795Z,8.66
2017-03-25T07:24:14.160Z,8.75
2017-03-25T07:24:55.388Z,8.77
2017-03-25T07:25:36.727Z,8.81
2017-03-25T07:26:18.597Z,8.87
2017-03-25T07:26:58.967Z,9
2017-03-25T07:27:39.422Z,9.11
2017-03-25T07:28:20.073Z,9.12
2017-03-25T07:29:01.194Z,9.18
2017-03-25T07:29:41.654Z,9.27
2017-03-25T07:30:22.121Z,9.36
2017-03-25T07:31:04.156Z,9.45
2017-03-25T07:31:49.241Z,9.52
2017-03-25T07:32:29.708Z,9.62
2017-03-25T07:33:11.609Z,9.64
2017-03-25T07:33:52.611Z,9.66
2017-03-25T07:34:32.984Z,9.74
2017-03-25T07:35:14.279Z,9.7
2017-03-25T07:35:57.176Z,9.8
2017-03-25T07:36:38.399Z,9.82
2017-03-25T07:37:18.821Z,9.73
2017-03-25T07:37:59.211Z,9.82
2017-03-25T07:38:40.175Z,9.85
2017-03-25T07:39:21.310Z,9.87
2017-03-25T07:40:01.721Z,9.97
2017-03-25T07:40:42.814Z,10.05
2017-03-25T07:41:25.881Z,10.17
2017-03-25T07:42:07.216Z,10.31
2017-03-25T07:42:50.072Z,10.31
2017-03-25T07:43:31.768Z,10.46
2017-03-25T07:44:12.067Z,10.49
2017-03-25T07:46:25.607Z,10.84
2017-03-25T07:47:09.517Z,10.87
2017-03-25T07:47:50.653Z,10.94
2017-03-25T07:48:34.576Z,11.12
2017-03-25T07:49:14.900Z,11.2
2017-03-25T07:49:55.335Z,11.34
2017-03-25T07:50:37.554Z,11.38
2017-03-25T07:51:17.939Z,11.53
2017-03-25T07:51:58.412Z,11.65
2017-03-25T07:52:38.873Z,11.71
2017-03-25T07:53:19.297Z,11.88
2017-03-25T07:54:02.070Z,12.1
2017-03-25T07:54:42.526Z,12.2
2017-03-25T07:55:24.546Z,12.3
2017-03-25T07:56:05.640Z,12.36
2017-03-25T07:56:46.738Z,12.54
2017-03-25T07:57:27.844Z,12.63
2017-03-25T07:58:09.210Z,12.76
2017-03-25T07:58:49.799Z,12.66
2017-03-25T07:59:31.016Z,12.7
2017-03-25T08:00:11.437Z,12.72
2017-03-25T08:00:54.553Z,12.72
2017-03-25T08:03:10.407Z,12.88
2017-03-25T08:04:58.624Z,13.16
2017-03-25T08:05:41.506Z,13.17
2017-03-25T08:06:23.420Z,13.28
2017-03-25T08:10:11.188Z,13.61
2017-03-25T08:12:24.447Z,13.86
2017-03-25T08:14:54.127Z,14.63
2017-03-25T08:16:45.359Z,15.65
2017-03-25T08:19:16.344Z,18.19
2017-03-25T08:19:58.320Z,18.89
2017-03-25T08:20:38.724Z,19.62
2017-03-25T08:21:19.164Z,20.33
2017-03-25T08:23:33.463Z,22.19
2017-03-25T08:24:18.770Z,22.76
2017-03-25T08:24:59.132Z,23.26
2017-03-25T08:25:39.556Z,23.77
2017-03-25T08:26:19.973Z,24.14
2017-03-25T08:27:00.391Z,24.5
2017-03-25T08:27:40.820Z,24.66
2017-03-25T08:28:21.229Z,25.07
2017-03-25T08:29:01.720Z,25.19
2017-03-25T08:29:42.113Z,25.25
2017-03-25T08:30:22.521Z,25.44
2017-03-25T08:31:02.893Z,25.67
2017-03-25T08:31:43.313Z,26.06
2017-03-25T08:32:23.743Z,26.33
2017-03-25T08:33:04.872Z,26.64
2017-03-25T08:33:45.373Z,26.88
2017-03-25T08:34:25.763Z,26.98
2017-03-25T08:35:06.217Z,26.98
2017-03-25T08:35:47.899Z,27.23
2017-03-25T08:36:28.341Z,27.23
2017-03-25T08:37:08.834Z,27.26
2017-03-25T08:37:51.405Z,27.35
2017-03-25T08:38:32.597Z,27.34
2017-03-25T08:39:13.033Z,27.45
2017-03-25T08:39:54.221Z,27.66
2017-03-25T08:40:35.473Z,27.58
2017-03-25T08:41:15.878Z,27.57
2017-03-25T08:41:56.363Z,27.53
2017-03-25T08:42:36.813Z,27.44
2017-03-25T08:43:17.184Z,27.38
2017-03-25T08:43:57.633Z,27.43
2017-03-25T08:44:38.935Z,27.44
2017-03-25T08:45:19.414Z,27.66
2017-03-25T08:45:59.841Z,27.81
2017-03-25T08:46:40.297Z,27.86
2017-03-25T08:47:20.721Z,28.01
2017-03-25T08:48:01.075Z,28.15
2017-03-25T08:48:42.120Z,28.08
2017-03-25T08:49:22.515Z,28.04
2017-03-25T08:50:05.883Z,28.12
2017-03-25T08:50:46.311Z,28.38
2017-03-25T08:51:26.719Z,28.47
2017-03-25T08:52:07.178Z,28.74
2017-03-25T08:52:47.568Z,28.78
2017-03-25T08:53:28.086Z,28.93
2017-03-25T08:54:08.494Z,28.87
2017-03-25T08:54:48.931Z,28.93
2017-03-25T08:55:29.373Z,28.96
2017-03-25T08:56:09.864Z,28.84
2017-03-25T08:56:50.276Z,28.72
2017-03-25T08:57:30.720Z,28.74
2017-03-25T08:58:11.177Z,28.74
2017-03-25T08:58:52.238Z,28.72
2017-03-25T08:59:32.571Z,28.7
2017-03-25T09:00:13.828Z,28.71
2017-03-25T09:00:54.197Z,28.72
2017-03-25T09:01:36.235Z,28.89
2017-03-25T09:02:16.656Z,29
2017-03-25T09:02:57.086Z,28.84
2017-03-25T09:03:38.477Z,28.74
2017-03-25T09:04:18.853Z,28.57
2017-03-25T09:04:59.341Z,28.37
2017-03-25T09:05:39.733Z,28.25
2017-03-25T09:06:20.176Z,28.22
2017-03-25T09:07:00.594Z,28.27
2017-03-25T09:07:41.001Z,28.46
2017-03-25T09:08:21.428Z,28.43
2017-03-25T09:09:02.860Z,28.37
2017-03-25T09:09:43.227Z,28.37
2017-03-25T09:10:24.630Z,28.35
2017-03-25T09:11:05.858Z,28.31
2017-03-25T09:11:46.267Z,28.46
2017-03-25T09:12:26.697Z,28.55
2017-03-25T09:13:07.077Z,28.67
2017-03-25T09:13:47.519Z,28.78
2017-03-25T09:14:27.940Z,28.8
2017-03-25T09:15:08.413Z,28.84
2017-03-25T09:15:48.901Z,28.75
2017-03-25T09:16:29.267Z,28.62
2017-03-25T09:17:09.715Z,28.68
2017-03-25T09:17:50.266Z,28.78
2017-03-25T09:18:30.683Z,28.86
2017-03-25T09:19:11.195Z,28.9
2017-03-25T09:19:51.697Z,28.84
2017-03-25T09:20:32.140Z,28.78
2017-03-25T09:21:12.509Z,28.72